createdAt,value
2022-12-01T00:02:04.795Z,1.50
2022-12-01T00:07:07.518Z,1.50
2022-12-01T00:12:11.453Z,1.40
2022-12-01T00:17:13.860Z,1.30
2022-12-01T00:22:16.327Z,1.30
2022-12-01T00:27:18.858Z,1.60
2022-12-01T00:32:21.346Z,1.40
2022-12-01T00:37:24.058Z,1.40
2022-12-01T00:42:27.700Z,1.40
2022-12-01T00:47:30.276Z,1.40
2022-12-01T00:52:32.840Z,1.40
2022-12-01T00:57:35.359Z,1.50
2022-12-01T01:02:40.151Z,1.40
2022-12-01T01:07:42.980Z,1.50
2022-12-01T01:17:48.451Z,1.50
2022-12-01T01:27:53.992Z,1.40
2022-12-01T01:37:59.436Z,1.40
2022-12-01T01:43:02.002Z,1.50
2022-12-01T01:48:04.650Z,1.50
2022-12-01T01:53:13.743Z,1.40
2022-12-01T02:03:20.524Z,1.70
2022-12-01T02:08:23.051Z,1.50
2022-12-01T02:14:02.242Z,1.60
2022-12-01T02:19:25.972Z,1.50
2022-12-01T02:25:07.119Z,1.60
2022-12-01T02:35:18.776Z,1.50
2022-12-01T02:40:42.556Z,1.70
2022-12-01T02:46:18.521Z,1.80
2022-12-01T02:51:32.169Z,1.90
2022-12-01T02:56:34.718Z,1.50
2022-12-01T03:01:52.625Z,1.50
2022-12-01T03:07:13.429Z,1.60
2022-12-01T03:12:30.423Z,1.50
2022-12-01T03:17:47.278Z,1.60
2022-12-01T03:23:00.107Z,1.70
2022-12-01T03:28:22.278Z,1.70
2022-12-01T03:33:31.383Z,1.70
2022-12-01T03:38:36.324Z,1.90
2022-12-01T03:43:44.006Z,1.80
2022-12-01T03:48:46.967Z,1.90
2022-12-01T03:58:56.154Z,1.90
2022-12-01T04:04:10.141Z,2.00
2022-12-01T04:09:13.038Z,1.80
2022-12-01T04:14:15.731Z,1.80
2022-12-01T04:19:18.224Z,1.80
2022-12-01T04:29:23.781Z,1.70
2022-12-01T04:34:29.002Z,1.60
2022-12-01T04:39:31.649Z,1.60
2022-12-01T04:44:35.160Z,1.70
2022-12-01T04:49:37.811Z,1.60
2022-12-01T04:54:40.504Z,1.60
2022-12-01T04:59:42.935Z,1.60
2022-12-01T05:04:48.017Z,1.60
2022-12-01T05:09:50.821Z,1.50
2022-12-01T05:14:53.762Z,1.50
2022-12-01T05:20:14.730Z,1.40
2022-12-01T05:25:17.385Z,1.40
2022-12-01T05:30:23.119Z,1.40
2022-12-01T05:35:29.588Z,1.40
2022-12-01T05:40:32.192Z,1.50
2022-12-01T05:55:43.154Z,1.50
2022-12-01T06:00:46.392Z,1.50
2022-12-01T06:05:49.098Z,1.50
2022-12-01T06:10:51.808Z,1.60
2022-12-01T06:16:05.417Z,1.40
2022-12-01T06:21:08.059Z,1.50
2022-12-01T06:26:10.542Z,1.50
2022-12-01T06:31:13.769Z,1.60
2022-12-01T06:36:16.303Z,1.40
2022-12-01T06:41:18.811Z,1.60
2022-12-01T06:46:21.415Z,1.60
2022-12-01T06:51:24.032Z,1.60
2022-12-01T06:56:26.570Z,1.70
2022-12-01T07:01:29.316Z,1.70
2022-12-01T07:06:32.684Z,1.70
2022-12-01T07:11:36.581Z,1.70
2022-12-01T07:21:42.328Z,1.80
2022-12-01T07:26:44.900Z,1.90
2022-12-01T07:31:47.423Z,2.00
2022-12-01T07:36:49.852Z,2.00
2022-12-01T07:41:52.434Z,2.00
2022-12-01T07:46:55.467Z,2.00
2022-12-01T08:02:03.872Z,2.10
2022-12-01T08:07:06.351Z,2.20
2022-12-01T08:12:09.449Z,2.30
2022-12-01T08:17:12.109Z,2.30
2022-12-01T08:22:14.622Z,2.60
2022-12-01T08:27:17.151Z,2.70
2022-12-01T08:32:19.606Z,2.70
2022-12-01T08:42:26.108Z,2.80
2022-12-01T08:47:29.362Z,2.60
2022-12-01T08:52:33.236Z,2.70
2022-12-01T08:57:35.776Z,2.70
2022-12-01T09:02:38.537Z,2.70
2022-12-01T09:07:43.052Z,2.70
2022-12-01T09:12:45.635Z,2.70
2022-12-01T09:17:48.070Z,2.70
2022-12-01T09:22:50.591Z,2.50
2022-12-01T09:27:53.131Z,2.50
2022-12-01T09:32:55.601Z,2.60
2022-12-01T09:37:58.685Z,2.60
2022-12-01T09:43:04.711Z,3.20
2022-12-01T09:48:18.000Z,3.10
2022-12-01T09:53:24.020Z,3.30
2022-12-01T09:58:30.862Z,3.00
2022-12-01T10:03:54.737Z,3.00
2022-12-01T10:09:05.883Z,3.00
2022-12-01T10:14:20.434Z,3.00
2022-12-01T10:19:54.776Z,2.80
2022-12-01T10:25:25.627Z,2.80
2022-12-01T10:30:28.207Z,2.90
2022-12-01T10:35:37.087Z,2.90
2022-12-01T10:40:41.490Z,2.90
2022-12-01T10:45:45.595Z,2.80
2022-12-01T10:50:51.493Z,2.70
2022-12-01T10:55:59.544Z,2.90
2022-12-01T11:01:06.038Z,2.90
2022-12-01T11:06:10.704Z,3.00
2022-12-01T11:11:40.647Z,2.90
2022-12-01T11:16:46.257Z,6.20
2022-12-01T11:21:54.850Z,3.00
2022-12-01T11:26:59.873Z,2.90
2022-12-01T11:32:14.217Z,2.90
2022-12-01T11:37:20.421Z,2.80
2022-12-01T11:42:30.433Z,2.90
2022-12-01T11:47:33.011Z,2.80
2022-12-01T11:52:45.500Z,2.70
2022-12-01T11:57:51.248Z,2.70
2022-12-01T12:03:16.436Z,2.70
2022-12-01T12:08:21.726Z,2.60
2022-12-01T12:13:32.991Z,2.50
2022-12-01T12:19:13.888Z,2.40
2022-12-01T12:25:04.324Z,2.30
2022-12-01T12:30:21.587Z,2.40
2022-12-01T12:35:49.923Z,2.20
2022-12-01T12:41:13.909Z,2.30
2022-12-01T12:46:33.714Z,2.40
2022-12-01T12:51:42.963Z,2.30
2022-12-01T12:56:47.846Z,2.30
2022-12-01T13:02:39.806Z,2.30
2022-12-01T13:07:52.199Z,2.20
2022-12-01T13:13:26.675Z,2.10
2022-12-01T13:18:52.959Z,2.20
2022-12-01T13:28:58.976Z,2.20
2022-12-01T13:34:05.028Z,2.10
2022-12-01T13:39:23.387Z,2.10
2022-12-01T13:44:37.609Z,2.10
2022-12-01T13:49:44.822Z,2.10
2022-12-01T13:55:08.581Z,2.10
2022-12-01T14:00:30.560Z,1.90
2022-12-01T14:05:41.778Z,2.00
2022-12-01T14:10:53.358Z,2.00
2022-12-01T14:16:04.664Z,1.90
2022-12-01T14:21:10.583Z,1.80
2022-12-01T14:26:18.254Z,1.90
2022-12-01T14:31:21.229Z,1.80
2022-12-01T14:36:23.628Z,1.80
2022-12-01T14:41:40.600Z,1.70
2022-12-01T14:46:48.933Z,1.70
2022-12-01T14:51:56.398Z,1.70
2022-12-01T14:57:06.875Z,1.70
2022-12-01T15:02:13.935Z,1.60
2022-12-01T15:07:22.809Z,1.70
2022-12-01T15:12:28.218Z,1.70
2022-12-01T15:17:34.569Z,1.70
2022-12-01T15:22:37.336Z,1.70
2022-12-01T15:27:43.391Z,1.70
2022-12-01T15:32:46.235Z,1.70
2022-12-01T15:37:49.990Z,1.80
2022-12-01T15:43:13.637Z,1.80
2022-12-01T15:48:35.804Z,1.60
2022-12-01T15:53:42.769Z,1.60
2022-12-01T15:58:47.815Z,1.50
2022-12-01T16:03:58.442Z,1.50
2022-12-01T16:09:06.760Z,1.50
2022-12-01T16:14:24.808Z,1.60
2022-12-01T16:19:33.073Z,1.60
2022-12-01T16:24:48.817Z,1.60
2022-12-01T16:30:01.663Z,1.50
2022-12-01T16:35:05.855Z,1.50
2022-12-01T16:40:09.448Z,1.40
2022-12-01T16:45:14.861Z,1.40
2022-12-01T16:50:19.351Z,1.40
2022-12-01T16:55:21.931Z,1.40
2022-12-01T17:00:24.677Z,1.30
2022-12-01T17:05:27.864Z,1.40
2022-12-01T17:10:30.743Z,1.40
2022-12-01T17:15:33.401Z,1.40
2022-12-01T17:20:36.068Z,1.50
2022-12-01T17:25:42.111Z,1.30
2022-12-01T17:30:44.844Z,1.20
2022-12-01T17:35:49.853Z,1.20
2022-12-01T17:41:04.326Z,1.20
2022-12-01T17:46:08.789Z,1.20
2022-12-01T17:51:13.237Z,1.10
2022-12-01T17:56:17.459Z,1.10
2022-12-01T18:01:24.257Z,1.10
2022-12-01T18:06:31.127Z,1.20
2022-12-01T18:11:33.678Z,1.20
2022-12-01T18:16:36.420Z,1.00
2022-12-01T18:21:39.492Z,1.10
2022-12-01T18:26:42.383Z,1.00
2022-12-01T18:31:45.891Z,1.00
2022-12-01T18:36:55.185Z,1.10
2022-12-01T18:41:57.869Z,1.00
2022-12-01T18:47:02.591Z,1.10
2022-12-01T18:52:05.365Z,1.10
2022-12-01T18:57:08.132Z,1.20
2022-12-01T19:02:10.883Z,1.00
2022-12-01T19:07:13.660Z,0.90
2022-12-01T19:12:16.796Z,1.00
2022-12-01T19:17:20.196Z,0.90
2022-12-01T19:22:23.557Z,0.90
2022-12-01T19:32:32.231Z,0.90
2022-12-01T19:37:35.012Z,0.90
2022-12-01T19:42:37.749Z,0.90
2022-12-01T19:52:43.110Z,0.60
2022-12-01T20:02:49.435Z,0.70
2022-12-01T20:07:52.935Z,0.50
2022-12-01T20:12:55.555Z,0.70
2022-12-01T20:17:58.068Z,0.60
2022-12-01T20:23:00.755Z,0.70
2022-12-01T20:28:03.741Z,0.60
2022-12-01T20:33:06.246Z,0.80
2022-12-01T20:38:08.769Z,0.60
2022-12-01T20:48:14.717Z,0.40
2022-12-01T20:53:17.253Z,0.40
2022-12-01T20:58:19.832Z,0.40
2022-12-01T21:03:22.405Z,0.30
2022-12-01T21:23:54.785Z,0.40
2022-12-01T21:28:59.873Z,0.20
2022-12-01T21:39:23.236Z,0.20
2022-12-01T21:44:35.379Z,0.10
2022-12-01T21:49:39.723Z,0.20
2022-12-01T21:59:45.219Z,0.20
2022-12-01T22:04:47.796Z,0.20
2022-12-01T22:09:51.354Z,0.10
2022-12-01T22:15:00.456Z,0.20
2022-12-01T22:20:20.843Z,0.20
2022-12-01T22:25:26.876Z,0.20
2022-12-01T22:35:46.396Z,0.10
2022-12-01T22:40:48.918Z,0.00
2022-12-01T22:46:00.073Z,0.10
2022-12-01T22:51:14.378Z,0.00
2022-12-01T22:56:24.469Z,0.00
2022-12-01T23:01:32.875Z,0.00
2022-12-01T23:06:52.149Z,0.10
2022-12-01T23:12:15.673Z,0.10
2022-12-01T23:17:25.154Z,0.10
2022-12-01T23:22:27.704Z,0.00
2022-12-01T23:27:31.254Z,0.00
2022-12-01T23:32:34.034Z,0.00
2022-12-01T23:37:39.498Z,0.00
2022-12-01T23:47:45.698Z,0.00
2022-12-01T23:52:48.913Z,-0.10
2022-12-01T23:57:52.366Z,-0.10
